Airfield :







YOU CAN JOIN US ON...

 
LOGIN :

Register | Disclaimer

   EN    FR    IT 

 









Legend :    VFR   Marginal VFR   IFR   Intensive IFR   Very Intensive IFR
Visi :
Ceiling :
>= 8 km
>= 3000ft
5 to 8 km
1000 to 3000 ft
1500m to 5 km
500 to 1000 ft
800 to 1500m
200 to 500 ft
< 800m
< 200 ft
Symbols :   Thunderstorms  Fog  Heavy snow  Heavy precipitations  Wind > 20 kt






- Airport Elevation : 244 ft
- IATA code : YQB


CYQB - Quebec - Jean Lesage Int.

CURRENT METAR :
  • 280100Z 08010KT 6SM -SHRA BR OVC004 09/09 A2970 RMK SF8 CVCTV CLD EMBD SLP059

EXPIRED METARs :
  • 280032Z 07010KT 5SM BR OVC003 10/09 A2970 RMK SF8 SLP059
  • 280000Z 08008KT 5SM -SHRA BR OVC004 10/09 A2970 RMK SF8 CVCTV CLD EMBD SLP062
  • 272332Z 09009G15KT 5SM -SHRA BR OVC004 10/09 A2971 RMK SF8 CVCTV CLD EMBD SLP064
  • 272300Z 07009KT 2 1/2SM -RA BR OVC004 10/10 A2970 RMK SF8 SLP062
  • 272254Z 08009G15KT 4SM -RA BR OVC004 10/10 A2970 RMK SF8 SLP060
  • 272237Z 07013KT 6SM BR OVC004 10/10 A2970 RMK SF8 SLP060

TAF TAF CYQB
Valid from the 28 at 00:00 until the 29 at 00:00 UTC


272340Z 2800/2824 07010KT 2SM -SHRA BR BKN004 OVC008
TEMPO 2800/2804 6SM SHRA BR BKN008 OVC012
PROB30 2800/2804 1 1/2SM TSRA BR BKN003 OVC020CB
FM280400 08008KT 3/4SM -SHRA BR OVC002
FM281200 VRB03KT 2SM -SHRA BR OVC006
FM281400 22005KT P6SM BKN020 OVC030
FM281700 28012G22KT P6SM BKN040
FM282300 28008KT P6SM SCT040 RMK NXT FCST BY 280600Z
ATIS : ENG : +1 418-871-6893 FRA : +1 418-871-6895
CZUL FIR / North America



MET'MAP, your aeronautical weather chart ! - Copyright ORBIFLY December 2007 - Disclaimer

ORBIFLY MET'MAP TEAM :

Programming & Development : Alexandra Zaïnal
Original concept : Baudouin d'Aumeries
Technical & hardware support : Manuel Goepfert
Assistance : Marc-Olivier Méhu

Contact : metmap@orbifly.com




SOURCES & CREDITS :

   NOAA